createdAt,value
2018-05-26T00:00:10.829Z,10.00
2018-05-26T00:02:40.369Z,4.50
2018-05-26T00:05:09.949Z,4.57
2018-05-26T00:07:39.473Z,4.33
2018-05-26T00:10:08.999Z,5.57
2018-05-26T00:12:38.707Z,5.03
2018-05-26T00:15:08.265Z,4.83
2018-05-26T00:17:38.172Z,4.90
2018-05-26T00:20:08.096Z,5.50
2018-05-26T00:22:37.405Z,8.93
2018-05-26T00:25:06.920Z,6.00
2018-05-26T00:27:36.455Z,6.20
2018-05-26T00:30:05.640Z,5.60
2018-05-26T00:32:35.165Z,5.40
2018-05-26T00:35:04.673Z,6.17
2018-05-26T00:37:34.247Z,5.33
2018-05-26T00:40:03.769Z,4.73
2018-05-26T00:42:33.287Z,6.70
2018-05-26T00:45:02.829Z,5.17
2018-05-26T00:47:32.773Z,6.50
2018-05-26T00:50:02.295Z,5.03
2018-05-26T00:52:31.843Z,4.27
2018-05-26T00:55:01.779Z,8.40
2018-05-26T00:57:31.739Z,6.73
2018-05-26T01:00:01.343Z,5.47
2018-05-26T01:02:31.015Z,5.13
2018-05-26T01:05:00.955Z,5.33
2018-05-26T01:07:30.482Z,5.00
2018-05-26T01:10:00.035Z,7.13
2018-05-26T01:12:29.957Z,4.93
2018-05-26T01:14:59.491Z,4.53
2018-05-26T01:17:28.995Z,7.67
2018-05-26T01:19:58.530Z,6.83
2018-05-26T01:22:28.057Z,5.00
2018-05-26T01:24:57.603Z,5.33
2018-05-26T01:27:27.123Z,4.80
2018-05-26T01:29:56.653Z,5.60
2018-05-26T01:32:26.187Z,4.17
2018-05-26T01:34:56.931Z,6.07
2018-05-26T01:37:26.863Z,4.97
2018-05-26T01:39:56.386Z,5.70
2018-05-26T01:42:25.925Z,4.30
2018-05-26T01:44:55.500Z,5.03
2018-05-26T01:47:25.017Z,5.43
2018-05-26T01:49:54.587Z,5.00
2018-05-26T01:52:24.125Z,7.37
2018-05-26T01:54:53.659Z,5.97
2018-05-26T01:57:23.241Z,5.63
2018-05-26T01:59:52.764Z,6.00
2018-05-26T02:02:22.308Z,5.83
2018-05-26T02:04:52.233Z,6.67
2018-05-26T02:07:22.165Z,4.53
2018-05-26T02:09:51.725Z,6.53
2018-05-26T02:12:21.462Z,7.47
2018-05-26T02:14:51.397Z,4.80
2018-05-26T02:17:20.943Z,6.87
2018-05-26T02:19:50.471Z,5.90
2018-05-26T02:22:20.301Z,5.23
2018-05-26T02:24:50.283Z,4.93
2018-05-26T02:27:19.837Z,5.60
2018-05-26T02:29:49.743Z,5.90
2018-05-26T02:32:19.661Z,5.00
2018-05-26T02:34:49.627Z,7.77
2018-05-26T02:37:19.777Z,8.43
2018-05-26T02:39:49.301Z,4.90
2018-05-26T02:42:19.247Z,5.87
2018-05-26T02:44:48.819Z,5.63
2018-05-26T02:47:18.782Z,4.70
2018-05-26T02:49:48.346Z,5.53
2018-05-26T02:52:18.272Z,4.60
2018-05-26T02:54:48.185Z,6.90
2018-05-26T02:57:18.164Z,5.73
2018-05-26T02:59:47.711Z,6.93
2018-05-26T03:02:17.255Z,6.97
2018-05-26T03:04:52.073Z,5.43
2018-05-26T03:07:26.843Z,4.73
2018-05-26T03:10:01.716Z,6.93
2018-05-26T03:12:36.597Z,4.60
2018-05-26T03:15:05.273Z,5.97
2018-05-26T03:17:34.573Z,7.77
2018-05-26T03:20:04.091Z,8.03
2018-05-26T03:22:33.608Z,5.43
2018-05-26T03:25:03.931Z,4.60
2018-05-26T03:27:33.537Z,7.87
2018-05-26T03:30:03.052Z,8.57
2018-05-26T03:32:32.655Z,6.47
2018-05-26T03:35:02.228Z,5.83
2018-05-26T03:37:31.752Z,7.50
2018-05-26T03:40:01.721Z,5.03
2018-05-26T03:42:31.293Z,15.53
2018-05-26T03:45:00.813Z,9.47
2018-05-26T03:47:30.741Z,13.23
2018-05-26T03:50:00.702Z,10.40
2018-05-26T03:52:30.307Z,9.40
2018-05-26T03:58:38.907Z,7.00
2018-05-26T04:01:08.813Z,5.30
2018-05-26T04:03:38.742Z,4.90
2018-05-26T04:06:08.671Z,5.47
2018-05-26T04:12:14.735Z,5.20
2018-05-26T04:14:44.646Z,5.90
2018-05-26T04:17:14.161Z,7.27
2018-05-26T04:19:44.081Z,6.57
2018-05-26T04:22:13.282Z,7.10
2018-05-26T04:24:42.811Z,11.00
2018-05-26T04:27:12.318Z,4.47
2018-05-26T04:29:41.835Z,5.27
2018-05-26T04:32:11.361Z,4.60
2018-05-26T04:34:40.901Z,6.70
2018-05-26T04:37:10.817Z,5.80
2018-05-26T04:39:40.730Z,7.53
2018-05-26T04:42:10.670Z,8.53
2018-05-26T04:44:40.367Z,4.47
2018-05-26T04:47:09.899Z,7.27
2018-05-26T04:49:39.456Z,6.40
2018-05-26T04:52:09.379Z,4.77
2018-05-26T04:54:39.292Z,4.93
2018-05-26T04:57:09.195Z,9.63
2018-05-26T04:59:38.711Z,4.93
2018-05-26T05:02:08.628Z,5.10
2018-05-26T05:04:38.290Z,6.93
2018-05-26T05:07:07.687Z,6.03
2018-05-26T05:09:37.199Z,5.57
2018-05-26T05:12:06.117Z,5.70
2018-05-26T05:14:36.229Z,7.30
2018-05-26T05:17:06.311Z,6.03
2018-05-26T05:19:36.381Z,5.00
2018-05-26T05:22:06.501Z,4.75
2018-05-26T05:24:36.585Z,6.22
2018-05-26T05:27:06.685Z,4.55
2018-05-26T05:29:36.781Z,6.43
2018-05-26T05:32:06.959Z,4.60
2018-05-26T05:34:37.433Z,4.70
2018-05-26T05:37:07.317Z,7.40
2018-05-26T05:39:37.118Z,5.00
2018-05-26T05:42:06.909Z,4.83
2018-05-26T05:44:37.093Z,5.33
2018-05-26T05:47:06.902Z,5.70
2018-05-26T05:49:36.682Z,4.50
2018-05-26T05:52:06.427Z,5.15
2018-05-26T05:54:36.501Z,5.87
2018-05-26T05:57:07.040Z,7.62
2018-05-26T05:59:37.127Z,6.30
2018-05-26T06:02:07.212Z,5.93
2018-05-26T06:04:37.352Z,7.40
2018-05-26T06:07:07.478Z,8.27
2018-05-26T06:09:37.734Z,7.65
2018-05-26T06:12:07.280Z,10.40
2018-05-26T06:14:37.386Z,7.22
2018-05-26T06:17:07.320Z,7.47
2018-05-26T06:19:37.248Z,7.07
2018-05-26T06:22:06.768Z,7.13
2018-05-26T06:24:36.534Z,8.03
2018-05-26T06:34:18.256Z,8.20
2018-05-26T06:36:47.810Z,8.77
2018-05-26T06:39:17.326Z,10.67
2018-05-26T06:41:46.866Z,7.80
2018-05-26T06:44:16.440Z,6.83
2018-05-26T06:46:45.958Z,8.87
2018-05-26T06:49:15.484Z,7.80
2018-05-26T06:51:45.256Z,7.77
2018-05-26T06:54:14.784Z,9.00
2018-05-26T06:56:44.654Z,9.97
2018-05-26T06:59:14.584Z,7.63
2018-05-26T07:01:44.126Z,9.27
2018-05-26T07:04:13.702Z,8.73
2018-05-26T07:06:43.230Z,9.00
2018-05-26T07:09:12.828Z,8.33
2018-05-26T07:11:42.369Z,8.73
2018-05-26T07:14:11.914Z,9.20
2018-05-26T07:16:41.820Z,8.27
2018-05-26T07:19:11.734Z,12.60
2018-05-26T07:21:41.722Z,9.13
2018-05-26T07:24:11.248Z,9.40
2018-05-26T07:26:40.774Z,9.23
2018-05-26T07:29:11.303Z,9.30
2018-05-26T07:31:41.420Z,8.80
2018-05-26T07:34:11.378Z,7.80
2018-05-26T07:36:40.916Z,12.13
2018-05-26T07:39:10.639Z,8.67
2018-05-26T07:41:40.186Z,8.40
2018-05-26T07:44:09.710Z,9.37
2018-05-26T07:46:39.557Z,8.90
2018-05-26T07:49:09.752Z,9.52
2018-05-26T07:51:40.244Z,9.82
2018-05-26T07:54:10.344Z,12.32
2018-05-26T07:56:40.424Z,9.85
2018-05-26T07:59:11.168Z,10.18
2018-05-26T08:01:41.272Z,12.35
2018-05-26T08:04:10.804Z,11.23
2018-05-26T08:06:41.134Z,12.75
2018-05-26T08:09:12.202Z,12.40
2018-05-26T08:11:42.299Z,10.65
2018-05-26T08:14:12.464Z,9.82
2018-05-26T08:16:42.587Z,10.25
2018-05-26T08:19:12.677Z,13.57
2018-05-26T08:21:42.782Z,10.07
2018-05-26T08:24:13.229Z,10.18
2018-05-26T08:26:43.359Z,12.43
2018-05-26T08:29:14.070Z,9.77
2018-05-26T08:31:44.183Z,10.40
2018-05-26T08:34:14.283Z,11.57
2018-05-26T08:36:44.677Z,9.32
2018-05-26T08:39:14.770Z,8.18
2018-05-26T08:41:44.927Z,9.45
2018-05-26T08:44:15.432Z,11.55
2018-05-26T08:46:45.753Z,10.50
2018-05-26T08:49:15.868Z,10.23
2018-05-26T08:51:45.963Z,9.93
2018-05-26T08:54:16.062Z,8.85
2018-05-26T08:56:46.831Z,9.57
2018-05-26T08:59:16.930Z,9.38
2018-05-26T09:01:47.069Z,8.95
2018-05-26T09:04:17.165Z,12.20
2018-05-26T09:06:47.285Z,8.30
2018-05-26T09:09:17.406Z,9.63
2018-05-26T09:11:47.850Z,10.50
2018-05-26T09:14:17.959Z,9.48
2018-05-26T09:16:48.055Z,8.43
2018-05-26T09:19:18.553Z,9.40
2018-05-26T09:21:48.725Z,10.57
2018-05-26T09:24:18.980Z,9.38
2018-05-26T09:26:49.289Z,10.27
2018-05-26T09:29:19.151Z,9.70
2018-05-26T09:31:49.663Z,9.95
2018-05-26T09:34:19.759Z,9.70
2018-05-26T09:36:49.846Z,9.00
2018-05-26T09:39:20.555Z,10.70
2018-05-26T09:41:51.073Z,11.20
2018-05-26T09:44:21.177Z,10.75
2018-05-26T09:46:51.275Z,8.45
2018-05-26T09:49:21.420Z,8.07
2018-05-26T09:51:51.707Z,8.45
2018-05-26T09:54:21.811Z,8.15
2018-05-26T09:56:51.915Z,8.90
2018-05-26T09:59:22.383Z,9.10
2018-05-26T10:01:52.485Z,6.97
2018-05-26T10:04:22.700Z,9.38
2018-05-26T10:06:52.931Z,9.85
2018-05-26T10:09:23.037Z,7.65
2018-05-26T10:11:53.149Z,6.70
2018-05-26T10:14:23.942Z,8.05
2018-05-26T10:16:54.107Z,8.95
2018-05-26T10:19:24.599Z,7.22
2018-05-26T10:21:54.697Z,6.80
2018-05-26T10:24:24.799Z,6.35
2018-05-26T10:26:54.976Z,6.15
2018-05-26T10:29:25.067Z,5.97
2018-05-26T10:31:55.414Z,5.78
2018-05-26T10:34:25.717Z,8.32
2018-05-26T10:36:55.835Z,6.68
2018-05-26T10:39:25.917Z,5.87
2018-05-26T10:41:56.015Z,4.72
2018-05-26T10:44:26.109Z,4.87
2018-05-26T10:46:56.369Z,4.90
2018-05-26T10:49:26.859Z,6.82
2018-05-26T10:51:57.111Z,5.55
2018-05-26T10:54:27.598Z,7.00
2018-05-26T10:56:57.709Z,4.45
2018-05-26T10:59:27.789Z,4.40
2018-05-26T11:01:58.261Z,4.35
2018-05-26T11:04:28.603Z,6.45
2018-05-26T11:06:58.885Z,5.50
2018-05-26T11:09:28.961Z,4.70
2018-05-26T11:11:59.079Z,7.03
2018-05-26T11:14:29.214Z,6.55
2018-05-26T11:16:59.236Z,6.00
2018-05-26T11:19:30.221Z,6.85
2018-05-26T11:22:00.299Z,4.40
2018-05-26T11:24:30.508Z,4.60
2018-05-26T11:27:01.097Z,4.78
2018-05-26T11:29:31.247Z,6.97
2018-05-26T11:32:01.335Z,4.25
2018-05-26T11:34:31.647Z,4.50
2018-05-26T11:37:01.729Z,4.85
2018-05-26T11:39:31.831Z,4.60
2018-05-26T11:42:01.921Z,5.82
2018-05-26T11:44:32.075Z,4.82
2018-05-26T11:47:02.183Z,3.97
2018-05-26T11:49:32.279Z,5.47
2018-05-26T11:52:02.382Z,3.97
2018-05-26T11:54:32.457Z,5.07
2018-05-26T11:57:02.567Z,5.07
2018-05-26T11:59:32.687Z,3.55
2018-05-26T12:02:02.826Z,4.47
2018-05-26T12:04:33.061Z,3.97
2018-05-26T12:07:04.124Z,5.28
2018-05-26T12:09:34.195Z,5.05
2018-05-26T12:12:04.019Z,3.72
2018-05-26T12:14:34.303Z,6.53
2018-05-26T12:17:04.427Z,3.60
2018-05-26T12:19:34.510Z,3.40
2018-05-26T12:22:03.933Z,5.93
2018-05-26T12:24:34.096Z,4.75
2018-05-26T12:27:04.196Z,4.10
2018-05-26T12:29:34.889Z,3.12
2018-05-26T12:32:04.747Z,4.18
2018-05-26T12:34:34.835Z,3.97
2018-05-26T12:37:04.599Z,4.12
2018-05-26T12:39:34.687Z,4.57
2018-05-26T12:42:05.245Z,3.97
2018-05-26T12:44:35.344Z,3.75
2018-05-26T12:47:05.430Z,3.50
2018-05-26T12:49:35.517Z,5.35
2018-05-26T12:52:05.990Z,4.60
2018-05-26T12:54:36.081Z,3.53
2018-05-26T12:57:06.555Z,3.70
2018-05-26T12:59:36.651Z,4.57
2018-05-26T13:02:06.751Z,4.53
2018-05-26T13:04:37.119Z,4.53
2018-05-26T13:07:07.199Z,3.22
2018-05-26T13:09:37.284Z,5.70
2018-05-26T13:12:07.039Z,3.30
2018-05-26T13:14:37.144Z,6.97
2018-05-26T13:17:07.623Z,4.55
2018-05-26T13:19:37.681Z,4.07
2018-05-26T13:22:07.928Z,4.00
2018-05-26T13:24:37.721Z,4.90
2018-05-26T13:27:07.579Z,6.57
2018-05-26T13:29:37.509Z,3.47
2018-05-26T13:32:07.816Z,3.03
2018-05-26T13:34:37.671Z,3.30
2018-05-26T13:37:07.862Z,2.87
2018-05-26T13:39:37.694Z,4.23
2018-05-26T13:42:07.772Z,4.45
2018-05-26T13:44:37.625Z,3.40
2018-05-26T13:47:07.849Z,4.17
2018-05-26T13:49:37.952Z,3.55
2018-05-26T13:52:08.247Z,4.15
2018-05-26T13:54:38.538Z,4.05
2018-05-26T13:57:09.605Z,3.83
2018-05-26T13:59:39.397Z,3.40
2018-05-26T14:02:09.191Z,3.00
2018-05-26T14:04:39.391Z,3.63
2018-05-26T14:07:09.269Z,3.50
2018-05-26T14:09:39.235Z,3.60
2018-05-26T14:12:09.316Z,3.60
2018-05-26T14:14:39.119Z,4.53
2018-05-26T14:17:08.912Z,4.70
2018-05-26T14:19:38.708Z,3.97
2018-05-26T14:22:08.878Z,5.10
2018-05-26T14:24:38.667Z,6.23
2018-05-26T14:27:08.447Z,4.80
2018-05-26T14:29:38.630Z,3.57
2018-05-26T14:32:08.487Z,4.57
2018-05-26T14:34:38.707Z,3.20
2018-05-26T14:37:08.905Z,3.50
2018-05-26T14:39:39.419Z,4.60
2018-05-26T14:42:09.217Z,6.70
2018-05-26T14:44:39.225Z,4.23
2018-05-26T14:47:09.039Z,4.03
2018-05-26T14:49:38.829Z,2.83
2018-05-26T14:52:08.635Z,3.37
2018-05-26T14:54:38.433Z,4.53
2018-05-26T14:57:08.292Z,2.87
2018-05-26T14:59:38.091Z,2.60
2018-05-26T15:02:07.948Z,4.73
2018-05-26T15:04:37.775Z,3.13
2018-05-26T15:07:08.006Z,3.50
2018-05-26T15:09:38.194Z,3.73
2018-05-26T15:12:08.011Z,3.67
2018-05-26T15:14:37.824Z,3.03
2018-05-26T15:17:07.622Z,3.40
2018-05-26T15:19:37.427Z,3.00
2018-05-26T15:22:07.230Z,3.60
2018-05-26T15:24:37.275Z,4.63
2018-05-26T15:27:07.082Z,4.17
2018-05-26T15:29:36.917Z,4.80
2018-05-26T15:32:06.704Z,6.40
2018-05-26T15:34:36.499Z,4.20
2018-05-26T15:37:06.311Z,2.80
2018-05-26T15:39:36.396Z,3.58
2018-05-26T15:42:06.475Z,5.72
2018-05-26T15:44:36.570Z,3.47
2018-05-26T15:47:06.382Z,3.50
2018-05-26T15:49:36.430Z,4.73
2018-05-26T15:52:06.019Z,3.93
2018-05-26T15:54:35.512Z,5.33
2018-05-26T15:57:05.406Z,5.20
2018-05-26T15:59:35.607Z,3.63
2018-05-26T16:02:05.418Z,5.70
2018-05-26T16:04:35.236Z,4.37
2018-05-26T16:07:05.434Z,6.03
2018-05-26T16:09:35.262Z,4.33
2018-05-26T16:12:04.738Z,5.10
2018-05-26T16:14:34.514Z,3.87
2018-05-26T16:17:04.317Z,3.87
2018-05-26T16:19:34.213Z,6.63
2018-05-26T16:22:04.760Z,3.35
2018-05-26T16:24:34.839Z,4.78
2018-05-26T16:27:04.938Z,4.87
2018-05-26T16:29:35.056Z,4.57
2018-05-26T16:32:05.147Z,4.32
2018-05-26T16:34:35.275Z,4.78
2018-05-26T16:37:05.767Z,5.45
2018-05-26T16:39:35.858Z,5.07
2018-05-26T16:42:05.997Z,4.53
2018-05-26T16:44:36.110Z,5.20
2018-05-26T16:47:06.222Z,4.18
2018-05-26T16:49:36.303Z,4.95
2018-05-26T16:52:06.790Z,7.35
2018-05-26T16:54:36.931Z,4.05
2018-05-26T16:57:07.488Z,4.05
2018-05-26T16:59:37.562Z,3.85
2018-05-26T17:02:07.645Z,3.90
2018-05-26T17:04:37.792Z,4.62
2018-05-26T17:07:07.892Z,5.65
2018-05-26T17:09:37.972Z,4.70
2018-05-26T17:12:08.448Z,4.70
2018-05-26T17:14:38.538Z,6.25
2018-05-26T17:17:08.696Z,5.05
2018-05-26T17:19:38.779Z,5.15
2018-05-26T17:22:08.898Z,6.80
2018-05-26T17:24:38.988Z,4.45
2018-05-26T17:27:09.598Z,7.35
2018-05-26T17:29:39.740Z,4.93
2018-05-26T17:32:10.287Z,6.47
2018-05-26T17:34:40.774Z,4.45
2018-05-26T17:37:10.876Z,7.97
2018-05-26T17:39:40.964Z,5.60
2018-05-26T17:42:11.061Z,6.28
2018-05-26T17:44:41.566Z,8.23
2018-05-26T17:47:11.666Z,8.95
2018-05-26T17:49:41.757Z,5.07
2018-05-26T17:52:11.860Z,5.78
2018-05-26T17:54:41.966Z,8.20
2018-05-26T17:57:12.454Z,9.45
2018-05-26T17:59:42.531Z,5.78
2018-05-26T18:02:13.536Z,6.03
2018-05-26T18:04:43.630Z,5.37
2018-05-26T18:07:13.731Z,4.37
2018-05-26T18:09:43.833Z,6.95
2018-05-26T18:12:14.094Z,6.05
2018-05-26T18:14:44.255Z,8.18
2018-05-26T18:17:14.420Z,4.72
2018-05-26T18:19:44.633Z,9.40
2018-05-26T18:22:14.723Z,7.05
2018-05-26T18:24:45.204Z,4.97
2018-05-26T18:27:15.295Z,5.47
2018-05-26T18:29:45.962Z,6.43
2018-05-26T18:32:16.073Z,6.37
2018-05-26T18:34:46.191Z,5.95
2018-05-26T18:37:16.299Z,6.97
2018-05-26T18:39:46.367Z,5.65
2018-05-26T18:42:16.466Z,5.47
2018-05-26T18:44:46.616Z,5.87
2018-05-26T18:47:16.906Z,5.45
2018-05-26T18:49:47.044Z,7.93
2018-05-26T18:52:17.144Z,6.75
2018-05-26T18:54:47.214Z,6.10
2018-05-26T18:57:17.691Z,4.32
2018-05-26T18:59:47.839Z,10.05
2018-05-26T19:02:18.169Z,6.65
2018-05-26T19:04:48.268Z,7.97
2018-05-26T19:07:18.372Z,7.68
2018-05-26T19:09:48.484Z,6.45
2018-05-26T19:12:20.387Z,11.98
2018-05-26T19:14:50.458Z,4.75
2018-05-26T19:17:20.529Z,5.32
2018-05-26T19:19:51.028Z,5.68
2018-05-26T19:22:21.133Z,4.55
2018-05-26T19:24:51.252Z,6.62
2018-05-26T19:27:21.327Z,4.97
2018-05-26T19:29:51.821Z,7.53
2018-05-26T19:32:21.918Z,5.82
2018-05-26T19:34:51.990Z,5.93
2018-05-26T19:37:22.494Z,6.80
2018-05-26T19:39:52.557Z,5.60
2018-05-26T19:42:22.660Z,4.78
2018-05-26T19:44:53.148Z,4.82
2018-05-26T19:47:23.220Z,5.85
2018-05-26T19:49:53.746Z,5.45
2018-05-26T19:52:23.996Z,7.55
2018-05-26T19:54:54.090Z,7.15
2018-05-26T19:57:24.560Z,6.22
2018-05-26T19:59:54.635Z,6.03
2018-05-26T20:02:25.114Z,9.35
2018-05-26T20:04:55.230Z,8.43
2018-05-26T20:07:25.325Z,7.43
2018-05-26T20:09:55.403Z,5.78
2018-05-26T20:12:25.473Z,6.45
2018-05-26T20:14:55.611Z,5.97
2018-05-26T20:17:25.839Z,5.85
2018-05-26T20:19:55.967Z,6.78
2018-05-26T20:22:26.055Z,6.80
2018-05-26T20:24:56.145Z,7.00
2018-05-26T20:27:26.635Z,6.57
2018-05-26T20:29:56.772Z,9.38
2018-05-26T20:32:26.875Z,6.37
2018-05-26T20:34:56.977Z,5.55
2018-05-26T20:37:27.071Z,4.70
2018-05-26T20:39:57.147Z,7.78
2018-05-26T20:42:27.238Z,6.12
2018-05-26T20:44:57.323Z,5.82
2018-05-26T20:47:27.427Z,7.35
2018-05-26T20:49:57.923Z,6.25
2018-05-26T20:52:28.197Z,5.68
2018-05-26T20:54:58.336Z,8.68
2018-05-26T20:57:27.869Z,7.20
2018-05-26T20:59:57.970Z,8.50
2018-05-26T21:02:28.239Z,6.60
2018-05-26T21:04:58.715Z,8.57
2018-05-26T21:07:28.837Z,7.72
2018-05-26T21:09:58.989Z,6.15
2018-05-26T21:12:29.487Z,6.32
2018-05-26T21:14:59.575Z,9.73
2018-05-26T21:17:29.687Z,8.68
2018-05-26T21:20:00.176Z,8.55
2018-05-26T21:22:30.287Z,6.70
2018-05-26T21:25:00.399Z,8.77
2018-05-26T21:27:30.151Z,7.90
2018-05-26T21:30:00.681Z,6.30
2018-05-26T21:32:31.137Z,7.30
2018-05-26T21:35:01.232Z,8.48
2018-05-26T21:37:32.183Z,8.48
2018-05-26T21:40:44.299Z,7.20
2018-05-26T21:43:14.407Z,9.98
2018-05-26T21:45:44.505Z,8.10
2018-05-26T21:48:14.603Z,6.10
2018-05-26T21:50:44.734Z,7.32
2018-05-26T21:53:14.835Z,7.72
2018-05-26T21:55:44.908Z,6.72
2018-05-26T21:58:14.996Z,8.18
2018-05-26T22:00:45.079Z,9.45
2018-05-26T22:03:15.417Z,9.10
2018-05-26T22:05:45.725Z,7.07
2018-05-26T22:08:15.809Z,6.75
2018-05-26T22:10:46.298Z,6.18
2018-05-26T22:13:16.391Z,8.95
2018-05-26T22:15:46.517Z,7.95
2018-05-26T22:18:16.586Z,9.45
2018-05-26T22:20:46.840Z,5.32
2018-05-26T22:23:16.919Z,6.95
2018-05-26T22:25:46.996Z,5.78
2018-05-26T22:28:17.082Z,7.37
2018-05-26T22:30:47.238Z,7.95
2018-05-26T22:33:17.394Z,8.02
2018-05-26T22:35:47.496Z,7.00
2018-05-26T22:38:17.579Z,8.00
2018-05-26T22:40:47.327Z,8.57
2018-05-26T22:43:17.407Z,6.15
2018-05-26T22:45:47.519Z,7.03
2018-05-26T22:48:17.636Z,8.23
2018-05-26T22:50:47.751Z,8.30
2018-05-26T22:53:18.233Z,6.65
2018-05-26T22:55:48.325Z,8.73
2018-05-26T22:58:18.431Z,6.10
2018-05-26T23:00:48.595Z,7.97
2018-05-26T23:03:18.773Z,9.35
2018-05-26T23:05:49.032Z,10.55
2018-05-26T23:08:19.673Z,10.20
2018-05-26T23:10:49.791Z,9.73
2018-05-26T23:13:19.925Z,6.78
2018-05-26T23:15:50.015Z,9.50
2018-05-26T23:18:20.115Z,8.18
2018-05-26T23:20:50.220Z,10.50
2018-05-26T23:23:20.335Z,7.40
2018-05-26T23:25:50.427Z,9.23
2018-05-26T23:28:20.536Z,7.37
2018-05-26T23:30:50.648Z,10.18
2018-05-26T23:33:20.735Z,7.55
2018-05-26T23:35:50.886Z,10.07
2018-05-26T23:38:20.970Z,9.65
2018-05-26T23:40:51.075Z,6.93
2018-05-26T23:43:21.176Z,6.40
2018-05-26T23:45:51.687Z,8.27
2018-05-26T23:48:21.778Z,8.88
2018-05-26T23:50:51.887Z,7.87
2018-05-26T23:53:21.985Z,9.27
2018-05-26T23:55:52.067Z,8.25
2018-05-26T23:58:22.189Z,9.05
